Santee, CA

10:11 PM PST on February 22, 2017 (GMT -0800)
Santee lakes | | Change Station

Elev 422 ft 32.85 °N, 116.99 °W | Updated 10 seconds ago

Partly Cloudy
Partly Cloudy
48.4 °F
Feels Like 48 °F
N
0.0
Wind Variable Wind from ESE
Gusts 0.0 mph

Today
High -- | Low -- °F
--% Chance of Precip.
Yesterday
High -- | Low -- °F
Precip. -- in
Pressure 30.06 in
Visibility 10.0 miles
Clouds Scattered Clouds 3000 ft
Windchill 48 °F
Dew Point 31 °F
Humidity 51%
Rainfall 0.00 in
Snow Depth Not available.
6:23 AM 5:39 PM
Waning Crescent, 12% visible
METAR KNKX 230555Z 12004KT 10SM SCT030 11/08 A3007 RMK AO2 SLP178 T01110078 10161 20100 50002 $
Pressure 30.06 in
Visibility 10.0 miles
Clouds Scattered Clouds 3000 ft
Windchill 48 °F
Dew Point 31 °F
Humidity 51%
Rainfall 0.00 in
Snow Depth Not available.
6:23 AM 5:39 PM
Waning Crescent, 12% visible
METAR KNKX 230555Z 12004KT 10SM SCT030 11/08 A3007 RMK AO2 SLP178 T01110078 10161 20100 50002 $

Get Your Daily Forecast Email!

Thanks for signing up!

Be on the lookout for a verification email in your inbox.

You'll start receiving the daily forecast at 8 AM.

×

10-Day Weather Forecast

Almanac

Astronomy

Feb. 22, 2017 Rise Set
Actual Time
Civil Twilight
Nautical Twilight
Astronomical Twilight
Moon
Length of Visible Light
Length of Day
Tomorrow will be .
, % of the Moon is Illuminated

Today's Extremes

State Highs State Lows

Community

WunderPhotos

Upload Photos

1,962,540 photos uploaded!

WunderBlog® & News

Nearby

Air Quality

  Air Quality AQ Index Pollutant
Not available.

Snow Depth

Station Depth Elevation

Earthquake Activity

City Distance Mag. Time & Date
Minimum magnitude displayed is 2.5.

Coastal Water Temperatures

Place Temperature

Stations

Nearby Weather Stations

Station Location Temp. Windchill Dew Point Humidity Wind Precip. Elev Updated Type
                   

Watches & Warnings

There are currently no watches in effect.